sensor_id;sensor_type;location;lat;lon;timestamp;temperature;humidity
21498;DHT22;10910;50.932;0.246;2024-02-26T00:01:23;5.20;100.00
21498;DHT22;10910;50.932;0.246;2024-02-26T00:03:49;5.20;100.00
21498;DHT22;10910;50.932;0.246;2024-02-26T00:06:15;5.20;100.00
21498;DHT22;10910;50.932;0.246;2024-02-26T00:08:41;5.20;100.00
21498;DHT22;10910;50.932;0.246;2024-02-26T00:11:07;5.20;100.00
21498;DHT22;10910;50.932;0.246;2024-02-26T00:13:32;5.10;100.00
21498;DHT22;10910;50.932;0.246;2024-02-26T00:15:58;5.10;100.00
21498;DHT22;10910;50.932;0.246;2024-02-26T00:18:24;5.10;100.00
21498;DHT22;10910;50.932;0.246;2024-02-26T00:20:49;5.10;100.00
21498;DHT22;10910;50.932;0.246;2024-02-26T00:23:15;5.10;100.00
21498;DHT22;10910;50.932;0.246;2024-02-26T00:25:41;5.20;100.00
21498;DHT22;10910;50.932;0.246;2024-02-26T00:28:09;5.10;100.00
21498;DHT22;10910;50.932;0.246;2024-02-26T00:30:35;5.20;100.00
21498;DHT22;10910;50.932;0.246;2024-02-26T00:33:01;5.20;100.00
21498;DHT22;10910;50.932;0.246;2024-02-26T00:35:27;5.20;100.00
21498;DHT22;10910;50.932;0.246;2024-02-26T00:37:53;5.20;100.00
21498;DHT22;10910;50.932;0.246;2024-02-26T00:40:19;5.20;100.00
21498;DHT22;10910;50.932;0.246;2024-02-26T00:42:44;5.20;100.00
21498;DHT22;10910;50.932;0.246;2024-02-26T00:45:14;5.20;100.00
21498;DHT22;10910;50.932;0.246;2024-02-26T00:47:42;5.20;100.00
21498;DHT22;10910;50.932;0.246;2024-02-26T00:50:08;5.20;100.00
21498;DHT22;10910;50.932;0.246;2024-02-26T00:52:34;5.20;100.00
21498;DHT22;10910;50.932;0.246;2024-02-26T00:55:01;5.30;100.00
21498;DHT22;10910;50.932;0.246;2024-02-26T00:57:27;5.30;100.00
21498;DHT22;10910;50.932;0.246;2024-02-26T00:59:52;5.30;100.00
21498;DHT22;10910;50.932;0.246;2024-02-26T01:02:18;5.30;100.00
21498;DHT22;10910;50.932;0.246;2024-02-26T01:04:43;5.30;100.00
21498;DHT22;10910;50.932;0.246;2024-02-26T01:07:09;5.40;100.00
21498;DHT22;10910;50.932;0.246;2024-02-26T01:09:35;5.40;100.00
21498;DHT22;10910;50.932;0.246;2024-02-26T01:12:01;5.40;100.00
21498;DHT22;10910;50.932;0.246;2024-02-26T01:14:28;5.40;100.00
21498;DHT22;10910;50.932;0.246;2024-02-26T01:16:54;5.40;100.00
21498;DHT22;10910;50.932;0.246;2024-02-26T01:19:19;5.40;100.00
21498;DHT22;10910;50.932;0.246;2024-02-26T01:21:45;5.40;100.00
21498;DHT22;10910;50.932;0.246;2024-02-26T01:24:10;5.40;100.00
21498;DHT22;10910;50.932;0.246;2024-02-26T01:26:36;5.40;100.00
21498;DHT22;10910;50.932;0.246;2024-02-26T01:29:02;5.40;100.00
21498;DHT22;10910;50.932;0.246;2024-02-26T01:31:27;5.40;100.00
21498;DHT22;10910;50.932;0.246;2024-02-26T01:33:53;5.50;100.00
21498;DHT22;10910;50.932;0.246;2024-02-26T01:36:19;5.50;100.00
21498;DHT22;10910;50.932;0.246;2024-02-26T01:38:45;5.50;100.00
21498;DHT22;10910;50.932;0.246;2024-02-26T01:41:11;5.50;100.00
21498;DHT22;10910;50.932;0.246;2024-02-26T01:43:36;5.50;100.00
21498;DHT22;10910;50.932;0.246;2024-02-26T01:46:03;5.60;100.00
21498;DHT22;10910;50.932;0.246;2024-02-26T01:48:29;5.50;100.00
21498;DHT22;10910;50.932;0.246;2024-02-26T01:50:55;5.50;100.00
21498;DHT22;10910;50.932;0.246;2024-02-26T01:53:21;5.60;100.00
21498;DHT22;10910;50.932;0.246;2024-02-26T01:55:47;5.50;100.00
21498;DHT22;10910;50.932;0.246;2024-02-26T01:58:13;5.50;100.00
21498;DHT22;10910;50.932;0.246;2024-02-26T02:00:39;5.50;100.00
21498;DHT22;10910;50.932;0.246;2024-02-26T02:03:06;5.60;100.00
21498;DHT22;10910;50.932;0.246;2024-02-26T02:05:32;5.60;100.00
21498;DHT22;10910;50.932;0.246;2024-02-26T02:07:59;5.60;100.00
21498;DHT22;10910;50.932;0.246;2024-02-26T02:10:26;5.60;100.00
21498;DHT22;10910;50.932;0.246;2024-02-26T02:12:52;5.50;100.00
21498;DHT22;10910;50.932;0.246;2024-02-26T02:15:18;5.60;100.00
21498;DHT22;10910;50.932;0.246;2024-02-26T02:17:43;5.60;100.00
21498;DHT22;10910;50.932;0.246;2024-02-26T02:20:15;5.60;100.00
21498;DHT22;10910;50.932;0.246;2024-02-26T02:22:42;5.60;100.00
21498;DHT22;10910;50.932;0.246;2024-02-26T02:25:08;5.60;100.00
21498;DHT22;10910;50.932;0.246;2024-02-26T02:27:34;5.60;100.00
21498;DHT22;10910;50.932;0.246;2024-02-26T02:29:59;5.60;100.00
21498;DHT22;10910;50.932;0.246;2024-02-26T02:32:25;5.70;100.00
21498;DHT22;10910;50.932;0.246;2024-02-26T02:34:52;5.70;100.00
21498;DHT22;10910;50.932;0.246;2024-02-26T02:37:17;5.70;100.00
21498;DHT22;10910;50.932;0.246;2024-02-26T02:39:43;5.70;100.00
21498;DHT22;10910;50.932;0.246;2024-02-26T02:42:09;5.70;100.00
21498;DHT22;10910;50.932;0.246;2024-02-26T02:44:36;5.70;100.00
21498;DHT22;10910;50.932;0.246;2024-02-26T02:47:01;5.70;100.00
21498;DHT22;10910;50.932;0.246;2024-02-26T02:49:27;5.60;100.00
21498;DHT22;10910;50.932;0.246;2024-02-26T02:51:53;5.60;100.00
21498;DHT22;10910;50.932;0.246;2024-02-26T02:54:20;5.60;100.00
21498;DHT22;10910;50.932;0.246;2024-02-26T02:56:45;5.60;100.00
21498;DHT22;10910;50.932;0.246;2024-02-26T02:59:11;5.60;100.00
21498;DHT22;10910;50.932;0.246;2024-02-26T03:01:37;5.60;100.00
21498;DHT22;10910;50.932;0.246;2024-02-26T03:04:02;5.60;100.00
21498;DHT22;10910;50.932;0.246;2024-02-26T03:06:28;5.60;100.00
21498;DHT22;10910;50.932;0.246;2024-02-26T03:08:54;5.60;100.00
21498;DHT22;10910;50.932;0.246;2024-02-26T03:11:20;5.60;100.00
21498;DHT22;10910;50.932;0.246;2024-02-26T03:13:46;5.60;100.00
21498;DHT22;10910;50.932;0.246;2024-02-26T03:16:11;5.60;100.00
21498;DHT22;10910;50.932;0.246;2024-02-26T03:18:40;5.60;100.00
21498;DHT22;10910;50.932;0.246;2024-02-26T03:21:06;5.60;100.00
21498;DHT22;10910;50.932;0.246;2024-02-26T03:23:32;5.70;100.00
21498;DHT22;10910;50.932;0.246;2024-02-26T03:26:03;5.60;100.00
21498;DHT22;10910;50.932;0.246;2024-02-26T03:28:29;5.60;100.00
21498;DHT22;10910;50.932;0.246;2024-02-26T03:30:55;5.60;100.00
21498;DHT22;10910;50.932;0.246;2024-02-26T03:33:20;5.60;100.00
21498;DHT22;10910;50.932;0.246;2024-02-26T03:35:46;5.60;100.00
21498;DHT22;10910;50.932;0.246;2024-02-26T03:38:11;5.60;100.00
21498;DHT22;10910;50.932;0.246;2024-02-26T03:40:37;5.60;100.00
21498;DHT22;10910;50.932;0.246;2024-02-26T03:43:03;5.60;100.00
21498;DHT22;10910;50.932;0.246;2024-02-26T03:45:30;5.60;100.00
21498;DHT22;10910;50.932;0.246;2024-02-26T03:47:55;5.50;100.00
21498;DHT22;10910;50.932;0.246;2024-02-26T03:50:21;5.50;100.00
21498;DHT22;10910;50.932;0.246;2024-02-26T03:52:47;5.50;100.00
21498;DHT22;10910;50.932;0.246;2024-02-26T03:55:12;5.50;100.00
21498;DHT22;10910;50.932;0.246;2024-02-26T03:57:38;5.50;100.00
21498;DHT22;10910;50.932;0.246;2024-02-26T04:00:04;5.50;100.00
21498;DHT22;10910;50.932;0.246;2024-02-26T04:02:30;5.40;100.00
21498;DHT22;10910;50.932;0.246;2024-02-26T04:04:55;5.40;100.00
21498;DHT22;10910;50.932;0.246;2024-02-26T04:07:21;5.40;100.00
21498;DHT22;10910;50.932;0.246;2024-02-26T04:09:47;5.40;100.00
21498;DHT22;10910;50.932;0.246;2024-02-26T04:12:12;5.40;100.00
21498;DHT22;10910;50.932;0.246;2024-02-26T04:14:38;5.40;100.00
21498;DHT22;10910;50.932;0.246;2024-02-26T04:17:03;5.40;100.00
21498;DHT22;10910;50.932;0.246;2024-02-26T04:19:29;5.30;100.00
21498;DHT22;10910;50.932;0.246;2024-02-26T04:21:55;5.40;100.00
21498;DHT22;10910;50.932;0.246;2024-02-26T04:24:20;5.40;100.00
21498;DHT22;10910;50.932;0.246;2024-02-26T04:26:46;5.40;100.00
21498;DHT22;10910;50.932;0.246;2024-02-26T04:29:12;5.40;100.00
21498;DHT22;10910;50.932;0.246;2024-02-26T04:31:38;5.40;100.00
21498;DHT22;10910;50.932;0.246;2024-02-26T04:34:04;5.40;100.00
21498;DHT22;10910;50.932;0.246;2024-02-26T04:36:30;5.50;100.00
21498;DHT22;10910;50.932;0.246;2024-02-26T04:38:55;5.40;100.00
21498;DHT22;10910;50.932;0.246;2024-02-26T04:41:21;5.50;100.00
21498;DHT22;10910;50.932;0.246;2024-02-26T04:43:47;5.50;100.00
21498;DHT22;10910;50.932;0.246;2024-02-26T04:46:13;5.50;100.00
21498;DHT22;10910;50.932;0.246;2024-02-26T04:48:39;5.50;100.00
21498;DHT22;10910;50.932;0.246;2024-02-26T04:51:07;5.50;100.00
21498;DHT22;10910;50.932;0.246;2024-02-26T04:53:32;5.50;100.00
21498;DHT22;10910;50.932;0.246;2024-02-26T04:55:58;5.40;100.00
21498;DHT22;10910;50.932;0.246;2024-02-26T04:58:24;5.40;100.00
21498;DHT22;10910;50.932;0.246;2024-02-26T05:00:49;5.40;100.00
21498;DHT22;10910;50.932;0.246;2024-02-26T05:03:15;5.40;100.00
21498;DHT22;10910;50.932;0.246;2024-02-26T05:05:44;5.50;100.00
21498;DHT22;10910;50.932;0.246;2024-02-26T05:08:10;5.40;100.00
21498;DHT22;10910;50.932;0.246;2024-02-26T05:10:37;5.40;100.00
21498;DHT22;10910;50.932;0.246;2024-02-26T05:13:08;5.40;100.00
21498;DHT22;10910;50.932;0.246;2024-02-26T05:15:34;5.40;100.00
21498;DHT22;10910;50.932;0.246;2024-02-26T05:18:00;5.40;100.00
21498;DHT22;10910;50.932;0.246;2024-02-26T05:20:25;5.50;100.00
21498;DHT22;10910;50.932;0.246;2024-02-26T05:22:51;5.40;100.00
21498;DHT22;10910;50.932;0.246;2024-02-26T05:25:17;5.40;100.00
21498;DHT22;10910;50.932;0.246;2024-02-26T05:27:43;5.40;100.00
21498;DHT22;10910;50.932;0.246;2024-02-26T05:30:10;5.40;100.00
21498;DHT22;10910;50.932;0.246;2024-02-26T05:32:37;5.40;100.00
21498;DHT22;10910;50.932;0.246;2024-02-26T05:35:03;5.40;100.00
21498;DHT22;10910;50.932;0.246;2024-02-26T05:37:29;5.40;100.00
21498;DHT22;10910;50.932;0.246;2024-02-26T05:39:55;5.40;100.00
21498;DHT22;10910;50.932;0.246;2024-02-26T05:42:21;5.40;100.00
21498;DHT22;10910;50.932;0.246;2024-02-26T05:44:46;5.40;100.00
21498;DHT22;10910;50.932;0.246;2024-02-26T05:47:12;5.30;100.00
21498;DHT22;10910;50.932;0.246;2024-02-26T05:49:39;5.30;100.00
21498;DHT22;10910;50.932;0.246;2024-02-26T05:52:05;5.40;100.00
21498;DHT22;10910;50.932;0.246;2024-02-26T05:54:31;5.30;100.00
21498;DHT22;10910;50.932;0.246;2024-02-26T05:56:57;5.40;100.00
21498;DHT22;10910;50.932;0.246;2024-02-26T05:59:23;5.30;100.00
21498;DHT22;10910;50.932;0.246;2024-02-26T06:01:49;5.30;100.00
21498;DHT22;10910;50.932;0.246;2024-02-26T06:04:15;5.30;100.00
21498;DHT22;10910;50.932;0.246;2024-02-26T06:06:40;5.30;100.00
21498;DHT22;10910;50.932;0.246;2024-02-26T06:09:06;5.30;100.00
21498;DHT22;10910;50.932;0.246;2024-02-26T06:11:32;5.30;100.00
21498;DHT22;10910;50.932;0.246;2024-02-26T06:13:57;5.30;100.00
21498;DHT22;10910;50.932;0.246;2024-02-26T06:16:23;5.30;100.00
21498;DHT22;10910;50.932;0.246;2024-02-26T06:18:49;5.30;100.00
21498;DHT22;10910;50.932;0.246;2024-02-26T06:21:15;5.30;100.00
21498;DHT22;10910;50.932;0.246;2024-02-26T06:23:40;5.30;100.00
21498;DHT22;10910;50.932;0.246;2024-02-26T06:26:06;5.30;100.00
21498;DHT22;10910;50.932;0.246;2024-02-26T06:28:32;5.30;100.00
21498;DHT22;10910;50.932;0.246;2024-02-26T06:30:59;5.30;100.00
21498;DHT22;10910;50.932;0.246;2024-02-26T06:33:25;5.30;100.00
21498;DHT22;10910;50.932;0.246;2024-02-26T06:35:50;5.30;100.00
21498;DHT22;10910;50.932;0.246;2024-02-26T06:38:16;5.20;100.00
21498;DHT22;10910;50.932;0.246;2024-02-26T06:40:43;5.20;100.00
21498;DHT22;10910;50.932;0.246;2024-02-26T06:43:09;5.30;100.00
21498;DHT22;10910;50.932;0.246;2024-02-26T06:45:35;5.20;100.00
21498;DHT22;10910;50.932;0.246;2024-02-26T06:48:00;5.20;100.00
21498;DHT22;10910;50.932;0.246;2024-02-26T06:50:26;5.20;100.00
21498;DHT22;10910;50.932;0.246;2024-02-26T06:52:52;5.20;100.00
21498;DHT22;10910;50.932;0.246;2024-02-26T06:55:18;5.20;100.00
21498;DHT22;10910;50.932;0.246;2024-02-26T06:57:43;5.20;100.00
21498;DHT22;10910;50.932;0.246;2024-02-26T07:00:09;5.20;100.00
21498;DHT22;10910;50.932;0.246;2024-02-26T07:02:40;5.20;100.00
21498;DHT22;10910;50.932;0.246;2024-02-26T07:05:06;5.20;100.00
21498;DHT22;10910;50.932;0.246;2024-02-26T07:07:32;5.20;100.00
21498;DHT22;10910;50.932;0.246;2024-02-26T07:09:57;5.20;100.00
21498;DHT22;10910;50.932;0.246;2024-02-26T07:12:23;5.10;100.00
21498;DHT22;10910;50.932;0.246;2024-02-26T07:14:49;5.10;100.00
21498;DHT22;10910;50.932;0.246;2024-02-26T07:17:16;5.10;100.00
21498;DHT22;10910;50.932;0.246;2024-02-26T07:19:42;5.10;100.00
21498;DHT22;10910;50.932;0.246;2024-02-26T07:22:07;5.10;100.00
21498;DHT22;10910;50.932;0.246;2024-02-26T07:24:33;5.10;100.00
21498;DHT22;10910;50.932;0.246;2024-02-26T07:26:59;5.10;100.00
21498;DHT22;10910;50.932;0.246;2024-02-26T07:29:24;5.10;100.00
21498;DHT22;10910;50.932;0.246;2024-02-26T07:31:50;5.10;100.00
21498;DHT22;10910;50.932;0.246;2024-02-26T07:34:16;5.10;100.00
21498;DHT22;10910;50.932;0.246;2024-02-26T07:36:41;5.10;100.00
21498;DHT22;10910;50.932;0.246;2024-02-26T07:39:07;5.10;100.00
21498;DHT22;10910;50.932;0.246;2024-02-26T07:41:32;5.10;100.00
21498;DHT22;10910;50.932;0.246;2024-02-26T07:43:58;5.00;100.00
21498;DHT22;10910;50.932;0.246;2024-02-26T07:46:24;5.00;100.00
21498;DHT22;10910;50.932;0.246;2024-02-26T07:48:50;5.00;100.00
21498;DHT22;10910;50.932;0.246;2024-02-26T07:51:15;5.00;100.00
21498;DHT22;10910;50.932;0.246;2024-02-26T07:53:41;5.00;100.00
21498;DHT22;10910;50.932;0.246;2024-02-26T07:56:07;5.00;100.00
21498;DHT22;10910;50.932;0.246;2024-02-26T07:58:33;5.00;100.00
21498;DHT22;10910;50.932;0.246;2024-02-26T08:00:59;5.00;100.00
21498;DHT22;10910;50.932;0.246;2024-02-26T08:03:24;4.90;100.00
21498;DHT22;10910;50.932;0.246;2024-02-26T08:05:51;4.90;100.00
21498;DHT22;10910;50.932;0.246;2024-02-26T08:08:17;4.90;100.00
21498;DHT22;10910;50.932;0.246;2024-02-26T08:10:43;4.90;100.00
21498;DHT22;10910;50.932;0.246;2024-02-26T08:13:09;4.90;100.00
21498;DHT22;10910;50.932;0.246;2024-02-26T08:15:37;4.90;100.00
21498;DHT22;10910;50.932;0.246;2024-02-26T08:18:03;4.90;100.00
21498;DHT22;10910;50.932;0.246;2024-02-26T08:20:30;4.90;100.00
21498;DHT22;10910;50.932;0.246;2024-02-26T08:22:56;4.90;100.00
21498;DHT22;10910;50.932;0.246;2024-02-26T08:25:22;4.90;100.00
21498;DHT22;10910;50.932;0.246;2024-02-26T08:27:48;4.90;100.00
21498;DHT22;10910;50.932;0.246;2024-02-26T08:30:15;4.90;100.00
21498;DHT22;10910;50.932;0.246;2024-02-26T08:32:48;4.90;100.00
21498;DHT22;10910;50.932;0.246;2024-02-26T08:35:14;4.80;100.00
21498;DHT22;10910;50.932;0.246;2024-02-26T08:37:40;4.90;100.00
21498;DHT22;10910;50.932;0.246;2024-02-26T08:40:07;4.90;100.00
21498;DHT22;10910;50.932;0.246;2024-02-26T08:42:32;4.80;100.00
21498;DHT22;10910;50.932;0.246;2024-02-26T08:44:58;4.90;100.00
21498;DHT22;10910;50.932;0.246;2024-02-26T08:47:27;4.90;100.00
21498;DHT22;10910;50.932;0.246;2024-02-26T08:49:53;4.90;100.00
21498;DHT22;10910;50.932;0.246;2024-02-26T08:52:19;4.90;100.00
21498;DHT22;10910;50.932;0.246;2024-02-26T08:54:44;4.90;100.00
21498;DHT22;10910;50.932;0.246;2024-02-26T08:57:10;4.90;100.00
21498;DHT22;10910;50.932;0.246;2024-02-26T08:59:36;4.90;100.00
21498;DHT22;10910;50.932;0.246;2024-02-26T09:02:01;4.90;100.00
21498;DHT22;10910;50.932;0.246;2024-02-26T09:04:28;4.90;100.00
21498;DHT22;10910;50.932;0.246;2024-02-26T09:06:53;4.90;100.00
21498;DHT22;10910;50.932;0.246;2024-02-26T09:09:20;4.90;100.00
21498;DHT22;10910;50.932;0.246;2024-02-26T09:11:47;4.90;100.00
21498;DHT22;10910;50.932;0.246;2024-02-26T09:14:14;4.90;100.00
21498;DHT22;10910;50.932;0.246;2024-02-26T09:16:39;5.00;100.00
21498;DHT22;10910;50.932;0.246;2024-02-26T09:19:05;4.90;100.00
21498;DHT22;10910;50.932;0.246;2024-02-26T09:21:31;4.90;100.00
21498;DHT22;10910;50.932;0.246;2024-02-26T09:23:56;4.90;100.00
21498;DHT22;10910;50.932;0.246;2024-02-26T09:26:22;4.90;100.00
21498;DHT22;10910;50.932;0.246;2024-02-26T09:28:48;4.90;100.00
21498;DHT22;10910;50.932;0.246;2024-02-26T09:31:15;5.00;100.00
21498;DHT22;10910;50.932;0.246;2024-02-26T09:33:42;5.00;100.00
21498;DHT22;10910;50.932;0.246;2024-02-26T09:36:08;5.00;100.00
21498;DHT22;10910;50.932;0.246;2024-02-26T09:38:35;5.00;100.00
21498;DHT22;10910;50.932;0.246;2024-02-26T09:41:06;4.90;100.00
21498;DHT22;10910;50.932;0.246;2024-02-26T09:43:36;5.00;100.00
21498;DHT22;10910;50.932;0.246;2024-02-26T09:46:02;4.90;100.00
21498;DHT22;10910;50.932;0.246;2024-02-26T09:48:29;4.90;100.00
21498;DHT22;10910;50.932;0.246;2024-02-26T09:50:55;4.90;100.00
21498;DHT22;10910;50.932;0.246;2024-02-26T09:53:22;4.90;99.80
21498;DHT22;10910;50.932;0.246;2024-02-26T09:55:48;4.90;100.00
21498;DHT22;10910;50.932;0.246;2024-02-26T09:58:14;5.00;99.90
21498;DHT22;10910;50.932;0.246;2024-02-26T10:00:46;4.90;100.00
21498;DHT22;10910;50.932;0.246;2024-02-26T10:03:15;5.00;100.00
21498;DHT22;10910;50.932;0.246;2024-02-26T10:05:41;5.00;100.00
21498;DHT22;10910;50.932;0.246;2024-02-26T10:08:09;5.00;99.60
21498;DHT22;10910;50.932;0.246;2024-02-26T10:10:36;5.00;99.50
21498;DHT22;10910;50.932;0.246;2024-02-26T10:13:04;5.00;99.30
21498;DHT22;10910;50.932;0.246;2024-02-26T10:15:35;5.00;98.50
21498;DHT22;10910;50.932;0.246;2024-02-26T10:18:04;5.00;98.60
21498;DHT22;10910;50.932;0.246;2024-02-26T10:20:31;5.00;99.00
21498;DHT22;10910;50.932;0.246;2024-02-26T10:22:57;5.00;98.70
21498;DHT22;10910;50.932;0.246;2024-02-26T10:25:23;5.00;98.80
21498;DHT22;10910;50.932;0.246;2024-02-26T10:27:49;5.00;98.10
21498;DHT22;10910;50.932;0.246;2024-02-26T10:30:20;5.00;98.10
21498;DHT22;10910;50.932;0.246;2024-02-26T10:32:47;5.00;97.90
21498;DHT22;10910;50.932;0.246;2024-02-26T10:35:16;5.00;98.70
21498;DHT22;10910;50.932;0.246;2024-02-26T10:37:43;5.00;97.90
21498;DHT22;10910;50.932;0.246;2024-02-26T10:40:13;5.00;98.50
21498;DHT22;10910;50.932;0.246;2024-02-26T10:42:39;5.10;98.20
21498;DHT22;10910;50.932;0.246;2024-02-26T10:45:06;5.10;98.40
21498;DHT22;10910;50.932;0.246;2024-02-26T10:47:33;5.10;97.90
21498;DHT22;10910;50.932;0.246;2024-02-26T10:50:00;5.10;98.10
21498;DHT22;10910;50.932;0.246;2024-02-26T10:52:27;5.20;97.60
21498;DHT22;10910;50.932;0.246;2024-02-26T10:54:54;5.20;98.00
21498;DHT22;10910;50.932;0.246;2024-02-26T10:57:21;5.20;98.10
21498;DHT22;10910;50.932;0.246;2024-02-26T10:59:48;5.30;97.40
21498;DHT22;10910;50.932;0.246;2024-02-26T11:02:14;5.30;97.80
21498;DHT22;10910;50.932;0.246;2024-02-26T11:04:40;5.30;97.70
21498;DHT22;10910;50.932;0.246;2024-02-26T11:07:09;5.40;97.10
21498;DHT22;10910;50.932;0.246;2024-02-26T11:09:35;5.40;97.80
21498;DHT22;10910;50.932;0.246;2024-02-26T11:12:09;5.50;97.70
21498;DHT22;10910;50.932;0.246;2024-02-26T11:14:39;5.50;96.80
21498;DHT22;10910;50.932;0.246;2024-02-26T11:17:07;5.50;96.20
21498;DHT22;10910;50.932;0.246;2024-02-26T11:19:35;5.50;96.10
21498;DHT22;10910;50.932;0.246;2024-02-26T11:22:01;5.60;96.10
21498;DHT22;10910;50.932;0.246;2024-02-26T11:24:27;5.60;96.30
21498;DHT22;10910;50.932;0.246;2024-02-26T11:26:55;5.60;95.30
21498;DHT22;10910;50.932;0.246;2024-02-26T11:29:32;5.60;95.50
21498;DHT22;10910;50.932;0.246;2024-02-26T11:32:00;5.60;95.20
21498;DHT22;10910;50.932;0.246;2024-02-26T11:34:26;5.60;95.20
21498;DHT22;10910;50.932;0.246;2024-02-26T11:36:52;5.50;95.50
21498;DHT22;10910;50.932;0.246;2024-02-26T11:39:18;5.50;95.70
21498;DHT22;10910;50.932;0.246;2024-02-26T11:41:44;5.50;95.70
21498;DHT22;10910;50.932;0.246;2024-02-26T11:44:09;5.50;96.20
21498;DHT22;10910;50.932;0.246;2024-02-26T11:46:42;5.60;95.60
21498;DHT22;10910;50.932;0.246;2024-02-26T11:51:53;5.60;95.40
21498;DHT22;10910;50.932;0.246;2024-02-26T11:54:46;5.70;95.20
21498;DHT22;10910;50.932;0.246;2024-02-26T11:57:37;5.70;94.90
21498;DHT22;10910;50.932;0.246;2024-02-26T12:02:46;5.70;96.00
21498;DHT22;10910;50.932;0.246;2024-02-26T12:05:21;5.70;94.60
21498;DHT22;10910;50.932;0.246;2024-02-26T12:07:59;5.70;94.20
21498;DHT22;10910;50.932;0.246;2024-02-26T12:10:31;5.70;94.20
21498;DHT22;10910;50.932;0.246;2024-02-26T12:13:11;5.70;94.90
21498;DHT22;10910;50.932;0.246;2024-02-26T12:15:44;5.80;94.70
21498;DHT22;10910;50.932;0.246;2024-02-26T12:18:16;5.80;94.30
21498;DHT22;10910;50.932;0.246;2024-02-26T12:20:42;5.80;94.70
21498;DHT22;10910;50.932;0.246;2024-02-26T12:23:14;5.90;94.40
21498;DHT22;10910;50.932;0.246;2024-02-26T12:25:40;5.90;94.00
21498;DHT22;10910;50.932;0.246;2024-02-26T12:28:07;5.90;93.30
21498;DHT22;10910;50.932;0.246;2024-02-26T12:30:33;5.90;94.10
21498;DHT22;10910;50.932;0.246;2024-02-26T12:32:59;5.90;93.10
21498;DHT22;10910;50.932;0.246;2024-02-26T12:35:27;5.90;93.20
21498;DHT22;10910;50.932;0.246;2024-02-26T12:37:55;6.00;93.80
21498;DHT22;10910;50.932;0.246;2024-02-26T12:40:21;6.00;92.30
21498;DHT22;10910;50.932;0.246;2024-02-26T12:42:48;5.90;92.90
21498;DHT22;10910;50.932;0.246;2024-02-26T12:45:13;6.00;92.50
21498;DHT22;10910;50.932;0.246;2024-02-26T12:47:45;6.00;91.70
21498;DHT22;10910;50.932;0.246;2024-02-26T12:50:15;6.00;91.30
21498;DHT22;10910;50.932;0.246;2024-02-26T12:52:44;6.10;91.10
21498;DHT22;10910;50.932;0.246;2024-02-26T12:55:19;6.10;90.80
21498;DHT22;10910;50.932;0.246;2024-02-26T12:57:45;6.10;91.30
21498;DHT22;10910;50.932;0.246;2024-02-26T13:00:15;6.10;91.00
21498;DHT22;10910;50.932;0.246;2024-02-26T13:02:42;6.20;91.10
21498;DHT22;10910;50.932;0.246;2024-02-26T13:05:10;6.20;91.30
21498;DHT22;10910;50.932;0.246;2024-02-26T13:07:44;6.20;91.30
21498;DHT22;10910;50.932;0.246;2024-02-26T13:10:10;6.20;92.20
21498;DHT22;10910;50.932;0.246;2024-02-26T13:12:44;6.10;92.10
21498;DHT22;10910;50.932;0.246;2024-02-26T13:15:15;6.20;92.10
21498;DHT22;10910;50.932;0.246;2024-02-26T13:17:40;6.20;92.80
21498;DHT22;10910;50.932;0.246;2024-02-26T13:20:08;6.20;92.10
21498;DHT22;10910;50.932;0.246;2024-02-26T13:22:35;6.20;90.90
21498;DHT22;10910;50.932;0.246;2024-02-26T13:25:01;6.20;90.70
21498;DHT22;10910;50.932;0.246;2024-02-26T13:27:29;6.20;89.20
21498;DHT22;10910;50.932;0.246;2024-02-26T13:30:08;6.20;89.90
21498;DHT22;10910;50.932;0.246;2024-02-26T13:32:35;6.20;90.30
21498;DHT22;10910;50.932;0.246;2024-02-26T13:35:19;6.30;88.40
21498;DHT22;10910;50.932;0.246;2024-02-26T13:37:45;6.30;87.40
21498;DHT22;10910;50.932;0.246;2024-02-26T13:40:11;6.30;87.70
21498;DHT22;10910;50.932;0.246;2024-02-26T13:42:37;6.30;87.00
21498;DHT22;10910;50.932;0.246;2024-02-26T13:45:04;6.30;87.20
21498;DHT22;10910;50.932;0.246;2024-02-26T13:47:36;6.30;88.10
21498;DHT22;10910;50.932;0.246;2024-02-26T13:50:02;6.30;88.10
21498;DHT22;10910;50.932;0.246;2024-02-26T13:52:28;6.30;88.90
21498;DHT22;10910;50.932;0.246;2024-02-26T13:54:53;6.30;88.50
21498;DHT22;10910;50.932;0.246;2024-02-26T13:57:19;6.30;88.60
21498;DHT22;10910;50.932;0.246;2024-02-26T13:59:45;6.30;88.50
21498;DHT22;10910;50.932;0.246;2024-02-26T14:02:11;6.30;88.90
21498;DHT22;10910;50.932;0.246;2024-02-26T14:04:37;6.30;89.20
21498;DHT22;10910;50.932;0.246;2024-02-26T14:07:03;6.30;88.90
21498;DHT22;10910;50.932;0.246;2024-02-26T14:09:29;6.30;89.40
21498;DHT22;10910;50.932;0.246;2024-02-26T14:11:55;6.30;89.90
21498;DHT22;10910;50.932;0.246;2024-02-26T14:14:21;6.30;88.50
21498;DHT22;10910;50.932;0.246;2024-02-26T14:16:46;6.30;88.40
21498;DHT22;10910;50.932;0.246;2024-02-26T14:19:12;6.30;87.30
21498;DHT22;10910;50.932;0.246;2024-02-26T14:21:37;6.30;86.20
21498;DHT22;10910;50.932;0.246;2024-02-26T14:24:04;6.30;87.80
21498;DHT22;10910;50.932;0.246;2024-02-26T14:26:30;6.20;88.30
21498;DHT22;10910;50.932;0.246;2024-02-26T14:28:55;6.20;88.10
21498;DHT22;10910;50.932;0.246;2024-02-26T14:31:21;6.30;88.10
21498;DHT22;10910;50.932;0.246;2024-02-26T14:33:47;6.30;87.80
21498;DHT22;10910;50.932;0.246;2024-02-26T14:36:14;6.30;88.30
21498;DHT22;10910;50.932;0.246;2024-02-26T14:38:40;6.30;88.90
21498;DHT22;10910;50.932;0.246;2024-02-26T14:41:05;6.40;89.10
21498;DHT22;10910;50.932;0.246;2024-02-26T14:43:32;6.40;88.30
21498;DHT22;10910;50.932;0.246;2024-02-26T14:45:58;6.30;87.30
21498;DHT22;10910;50.932;0.246;2024-02-26T14:48:24;6.30;88.10
21498;DHT22;10910;50.932;0.246;2024-02-26T14:50:50;6.30;87.80
21498;DHT22;10910;50.932;0.246;2024-02-26T14:53:17;6.30;88.40
21498;DHT22;10910;50.932;0.246;2024-02-26T14:55:42;6.20;87.80
21498;DHT22;10910;50.932;0.246;2024-02-26T14:58:08;6.20;87.90
21498;DHT22;10910;50.932;0.246;2024-02-26T15:00:36;6.20;87.80
21498;DHT22;10910;50.932;0.246;2024-02-26T15:03:03;6.30;88.00
21498;DHT22;10910;50.932;0.246;2024-02-26T15:05:29;6.30;86.60
21498;DHT22;10910;50.932;0.246;2024-02-26T15:07:55;6.30;87.10
21498;DHT22;10910;50.932;0.246;2024-02-26T15:10:20;6.30;86.80
21498;DHT22;10910;50.932;0.246;2024-02-26T15:12:46;6.30;87.40
21498;DHT22;10910;50.932;0.246;2024-02-26T15:15:12;6.30;87.80
21498;DHT22;10910;50.932;0.246;2024-02-26T15:17:38;6.30;88.40
21498;DHT22;10910;50.932;0.246;2024-02-26T15:20:04;6.30;88.30
21498;DHT22;10910;50.932;0.246;2024-02-26T15:22:33;6.30;88.50
21498;DHT22;10910;50.932;0.246;2024-02-26T15:24:58;6.30;88.00
21498;DHT22;10910;50.932;0.246;2024-02-26T15:27:24;6.30;88.70
21498;DHT22;10910;50.932;0.246;2024-02-26T15:29:50;6.30;88.80
21498;DHT22;10910;50.932;0.246;2024-02-26T15:32:23;6.30;89.40
21498;DHT22;10910;50.932;0.246;2024-02-26T15:34:50;6.30;89.70
21498;DHT22;10910;50.932;0.246;2024-02-26T15:37:16;6.20;89.30